McComb, MS

8:37 AM CDT on April 01, 2015 (GMT -0500)
UNION CHURCH ROAD 1 MILE E OF MAGNOLIA | | Change Station
CLOSE
Current Station
Personal Weather Station
Location: Magnolia, MS
Elevation: 397 ft
Nearby Weather Stations
Active Advisory: Special Statement

Elev 397 ft 31.15 °N, 90.44 °W | Updated 6 minutes ago

Fog
Fog
64.9 °F
Feels Like 64.9 °F
N
0.0
Wind Variable Wind from South

Today
High -- | Low -- °F
--% Chance of Precip.
Yesterday
High -- | Low -- °F
Precip. -- in
6:50 AM 7:20 PM
Waxing Gibbous, 92% visible
Pressure 30.08 in
Visibility 1.2 miles
Clouds Overcast 300 ft
Dew Point 64 °F
Humidity 97%
Rainfall 0.00 in
Snow Depth Not available.
UV 0 out of 12
Pollen 10.50 out of 12
Air Quality Not available.
Flu Activity Not available.
SPECI KMCB 011315Z AUTO 00000KT 1 1/4SM BR OVC003 18/18 A3008 RMK AO2 T01780178

More Conditions Fewer Conditions

Pressure 30.08 in
Visibility 1.2 miles
Clouds Overcast 300 ft
Dew Point 64 °F
Humidity 97%
Rainfall 0.00 in
Snow Depth Not available.
UV 0 out of 12
Pollen 10.50 out of 12
Air Quality Not available.
Flu Activity Not available.
SPECI KMCB 011315Z AUTO 00000KT 1 1/4SM BR OVC003 18/18 A3008 RMK AO2 T01780178

More Conditions Fewer Conditions

10-Day Weather Forecast

Almanac

Astronomy

Apr. 01, 2015 Rise Set
Actual Time
Civil Twilight
Nautical Twilight
Astronomical Twilight
Moon
Length of Visible Light
Length of Day
Tomorrow will be .
, % of the Moon is Illuminated

Today's Extremes

State Highs State Lows

Community

WunderPhotos

Upload Photos

1,809,954 photos uploaded!

WunderBlogs® & News

Nearby

Air Quality

  Air Quality AQ Index Pollutant
Not available.

Snow Depth

Station Depth Elevation

Earthquake Activity

City Distance Mag. Time & Date
Minimum magnitude displayed is 2.5.

Coastal Water Temperatures

Place Temperature

Stations

Nearby Weather Stations

Station Location Temp. Windchill Dew Point Humidity Wind Precip. Elev Updated Type
                   
Special Statement
Statement as of 5:05 AM CDT on April 01, 2015

Isolated areas of dense fog will form this morning. Visibilities
due to the fog will change rapidly with time and location.
Although this fog will not be widespread or last long in any one
location... it can be just as dangerous for motorists since
visibility can change rapidly within a short distance. Fog is
expected to lift by 9am.